createdAt,value
2022-12-13T00:01:22.036Z,-0.90
2022-12-13T00:03:50.160Z,-0.90
2022-12-13T00:06:19.540Z,-1.00
2022-12-13T00:08:47.580Z,-0.90
2022-12-13T00:11:16.318Z,-0.90
2022-12-13T00:13:44.554Z,-0.80
2022-12-13T00:16:13.640Z,-0.90
2022-12-13T00:18:41.784Z,-0.80
2022-12-13T00:21:11.129Z,-0.80
2022-12-13T00:23:40.673Z,-0.80
2022-12-13T00:26:09.847Z,-0.70
2022-12-13T00:28:37.914Z,-0.70
2022-12-13T00:31:43.257Z,-0.70
2022-12-13T00:33:54.252Z,-0.80
2022-12-13T00:36:22.265Z,-0.90
2022-12-13T00:39:00.481Z,-0.90
2022-12-13T00:41:30.231Z,-0.90
2022-12-13T00:43:58.928Z,-0.90
2022-12-13T00:46:27.251Z,-0.90
2022-12-13T00:48:56.069Z,-0.80
2022-12-13T00:51:24.275Z,-0.80
2022-12-13T00:53:53.681Z,-0.80
2022-12-13T00:56:25.496Z,-0.80
2022-12-13T00:58:53.656Z,-0.80
2022-12-13T01:01:22.435Z,-0.80
2022-12-13T01:03:50.761Z,-0.80
2022-12-13T01:06:19.740Z,-0.80
2022-12-13T01:08:47.906Z,-0.80
2022-12-13T01:11:17.322Z,-0.90
2022-12-13T01:13:45.355Z,-0.90
2022-12-13T01:16:13.652Z,-0.90
2022-12-13T01:18:41.872Z,-0.90
2022-12-13T01:21:12.064Z,-1.00
2022-12-13T01:23:40.175Z,-0.90
2022-12-13T01:26:09.644Z,-1.00
2022-12-13T01:28:39.047Z,-0.90
2022-12-13T01:31:08.535Z,-0.90
2022-12-13T01:33:36.765Z,-1.00
2022-12-13T01:36:06.590Z,-1.00
2022-12-13T01:38:38.067Z,-1.10
2022-12-13T01:41:16.716Z,-1.10
2022-12-13T01:44:05.329Z,-1.10
2022-12-13T01:46:34.162Z,-1.20
2022-12-13T01:49:05.556Z,-1.20
2022-12-13T01:51:50.079Z,-1.20
2022-12-13T01:54:21.246Z,-1.30
2022-12-13T01:56:52.162Z,-1.30
2022-12-13T01:59:21.551Z,-1.20
2022-12-13T02:01:49.828Z,-1.10
2022-12-13T02:04:17.980Z,-1.10
2022-12-13T02:06:45.991Z,-1.10
2022-12-13T02:09:14.018Z,-1.10
2022-12-13T02:11:43.627Z,-1.10
2022-12-13T02:14:11.665Z,-1.10
2022-12-13T02:16:47.174Z,-1.20
2022-12-13T02:19:46.357Z,-1.20
2022-12-13T02:22:21.791Z,-1.20
2022-12-13T02:25:01.878Z,-1.10
2022-12-13T02:27:51.838Z,-1.10
2022-12-13T02:30:30.935Z,-1.10
2022-12-13T02:33:25.171Z,-1.10
2022-12-13T02:35:56.429Z,-1.10
2022-12-13T02:38:28.093Z,-1.00
2022-12-13T02:41:00.682Z,-1.10
2022-12-13T02:43:33.635Z,-1.10
2022-12-13T02:46:03.388Z,-1.00
2022-12-13T02:48:33.059Z,-1.10
2022-12-13T02:51:01.390Z,-1.00
2022-12-13T02:53:29.463Z,-1.10
2022-12-13T02:56:01.790Z,-1.00
2022-12-13T02:58:31.912Z,-1.10
2022-12-13T03:01:27.839Z,-1.10
2022-12-13T03:04:01.740Z,-1.10
2022-12-13T03:06:33.286Z,-1.20
2022-12-13T03:09:08.948Z,-1.10
2022-12-13T03:12:08.033Z,-1.00
2022-12-13T03:14:36.222Z,-0.90
2022-12-13T03:17:06.615Z,-0.90
2022-12-13T03:19:34.663Z,-0.90
2022-12-13T03:22:02.684Z,-1.00
2022-12-13T03:24:30.745Z,-1.00
2022-12-13T03:26:58.739Z,-0.90
2022-12-13T03:29:26.802Z,-0.90
2022-12-13T03:31:54.847Z,-1.00
2022-12-13T03:34:24.274Z,-1.10
2022-12-13T03:36:52.452Z,-1.20
2022-12-13T03:39:20.528Z,-1.30
2022-12-13T03:41:48.550Z,-1.20
2022-12-13T03:44:16.602Z,-1.10
2022-12-13T03:46:45.798Z,-1.20
2022-12-13T03:49:17.442Z,-1.20
2022-12-13T03:51:47.120Z,-1.10
2022-12-13T03:54:15.298Z,-1.20
2022-12-13T03:56:43.337Z,-1.10
2022-12-13T03:59:11.392Z,-1.10
2022-12-13T04:01:39.455Z,-1.10
2022-12-13T04:04:07.552Z,-1.10
2022-12-13T04:06:35.583Z,-1.10
2022-12-13T04:09:05.111Z,-1.00
2022-12-13T04:11:50.700Z,-1.00
2022-12-13T04:14:21.952Z,-1.00
2022-12-13T04:16:51.586Z,-1.00
2022-12-13T04:19:22.858Z,-1.00
2022-12-13T04:21:52.272Z,-1.00
2022-12-13T04:24:21.717Z,-1.00
2022-12-13T04:26:59.096Z,-1.00
2022-12-13T04:29:34.311Z,-1.00
2022-12-13T04:32:03.499Z,-0.90
2022-12-13T04:34:36.897Z,-1.00
2022-12-13T04:37:05.818Z,-1.00
2022-12-13T04:39:35.233Z,-1.10
2022-12-13T04:42:03.375Z,-1.10
2022-12-13T04:44:36.633Z,-1.10
2022-12-13T04:47:05.333Z,-1.10
2022-12-13T04:49:33.426Z,-1.10
2022-12-13T04:52:02.254Z,-1.00
2022-12-13T04:54:36.176Z,-1.00
2022-12-13T04:57:08.282Z,-1.10
2022-12-13T04:59:36.526Z,-1.10
2022-12-13T05:02:05.797Z,-1.00
2022-12-13T05:04:33.940Z,-1.00
2022-12-13T05:07:02.311Z,-1.00
2022-12-13T05:09:30.387Z,-1.00
2022-12-13T05:12:01.349Z,-0.90
2022-12-13T05:14:31.304Z,-1.10
2022-12-13T05:16:59.421Z,-1.00
2022-12-13T05:19:31.105Z,-1.00
2022-12-13T05:22:01.093Z,-1.00
2022-12-13T05:24:30.751Z,-0.90
2022-12-13T05:26:58.954Z,-0.90
2022-12-13T05:29:27.953Z,-0.90
2022-12-13T05:31:57.514Z,-0.90
2022-12-13T05:34:25.600Z,-1.00
2022-12-13T05:36:53.633Z,-1.00
2022-12-13T05:39:27.878Z,-1.00
2022-12-13T05:42:01.154Z,-1.00
2022-12-13T05:44:31.310Z,-1.00
2022-12-13T05:47:02.047Z,-1.10
2022-12-13T05:49:32.315Z,-1.10
2022-12-13T05:52:00.512Z,-1.10
2022-12-13T05:54:28.563Z,-1.10
2022-12-13T05:56:56.620Z,-1.00
2022-12-13T05:59:24.678Z,-1.00
2022-12-13T06:01:52.802Z,-1.00
2022-12-13T06:04:23.385Z,-1.00
2022-12-13T06:06:51.944Z,-1.00
2022-12-13T06:09:20.075Z,-0.90
2022-12-13T06:11:48.244Z,-1.00
2022-12-13T06:14:22.817Z,-1.00
2022-12-13T06:16:52.238Z,-1.00
2022-12-13T06:19:21.951Z,-0.90
2022-12-13T06:21:50.122Z,-0.90
2022-12-13T06:24:18.461Z,-0.90
2022-12-13T06:26:46.567Z,-0.90
2022-12-13T06:29:22.758Z,-1.00
2022-12-13T06:32:01.084Z,-1.00
2022-12-13T06:34:33.203Z,-1.00
2022-12-13T06:37:02.682Z,-0.90
2022-12-13T06:39:32.827Z,-1.00
2022-12-13T06:42:02.663Z,-1.10
2022-12-13T06:44:30.737Z,-1.30
2022-12-13T06:47:11.626Z,-1.30
2022-12-13T06:49:44.160Z,-1.20
2022-12-13T06:52:13.742Z,-1.20
2022-12-13T06:54:41.901Z,-1.10
2022-12-13T06:57:09.981Z,-1.10
2022-12-13T06:59:38.127Z,-1.20
2022-12-13T07:02:06.585Z,-1.20
2022-12-13T07:04:54.773Z,-1.20
2022-12-13T07:07:22.850Z,-1.20
2022-12-13T07:09:50.914Z,-1.30
2022-12-13T07:12:21.017Z,-1.30
2022-12-13T07:14:49.296Z,-1.20
2022-12-13T07:17:32.798Z,-1.20
2022-12-13T07:20:07.953Z,-1.30
2022-12-13T07:22:42.957Z,-1.20
2022-12-13T07:25:27.987Z,-1.20
2022-12-13T07:28:01.407Z,-1.10
2022-12-13T07:30:30.807Z,-1.30
2022-12-13T07:32:58.939Z,-1.20
2022-12-13T07:35:28.362Z,-1.20
2022-12-13T07:37:56.411Z,-1.30
2022-12-13T07:40:24.470Z,-1.30
2022-12-13T07:42:52.531Z,-1.20
2022-12-13T07:45:20.601Z,-1.20
2022-12-13T07:47:48.627Z,-1.20
2022-12-13T07:50:24.717Z,-1.10
2022-12-13T07:52:55.073Z,-1.10
2022-12-13T07:55:33.671Z,-1.00
2022-12-13T07:58:07.244Z,-1.10
2022-12-13T08:00:36.300Z,-1.00
2022-12-13T08:03:04.554Z,-1.00
2022-12-13T08:05:38.554Z,-1.00
2022-12-13T08:08:09.424Z,-1.10
2022-12-13T08:10:37.571Z,-1.00
2022-12-13T08:13:05.638Z,-1.00
2022-12-13T08:15:33.695Z,-0.90
2022-12-13T08:18:01.978Z,-1.00
2022-12-13T08:20:30.042Z,-0.90
2022-12-13T08:23:02.053Z,-0.80
2022-12-13T08:25:32.109Z,-1.00
2022-12-13T08:28:01.375Z,-0.90
2022-12-13T08:30:30.133Z,-0.90
2022-12-13T08:32:58.135Z,-0.80
2022-12-13T08:35:33.632Z,-0.80
2022-12-13T08:38:02.221Z,-0.70
2022-12-13T08:40:31.624Z,-0.80
2022-12-13T08:42:59.664Z,-0.80
2022-12-13T08:45:28.072Z,-0.70
2022-12-13T08:47:58.097Z,-0.90
2022-12-13T08:50:26.164Z,-0.90
2022-12-13T08:52:54.199Z,-1.00
2022-12-13T08:55:31.817Z,-1.00
2022-12-13T08:58:07.003Z,-0.90
2022-12-13T09:00:36.664Z,-0.90
2022-12-13T09:03:05.186Z,-0.80
2022-12-13T09:05:35.081Z,-0.80
2022-12-13T09:08:22.746Z,-0.80
2022-12-13T09:10:59.263Z,-0.80
2022-12-13T09:13:31.401Z,-0.70
2022-12-13T09:16:01.546Z,-0.70
2022-12-13T09:18:36.202Z,-0.80
2022-12-13T09:21:11.751Z,-0.70
2022-12-13T09:23:46.156Z,-0.90
2022-12-13T09:26:15.282Z,-0.90
2022-12-13T09:28:44.689Z,-0.80
2022-12-13T09:31:13.749Z,-0.70
2022-12-13T09:33:42.136Z,-0.60
2022-12-13T09:36:12.595Z,-0.70
2022-12-13T09:38:40.770Z,-0.60
2022-12-13T09:41:19.597Z,-0.80
2022-12-13T09:43:50.142Z,-0.70
2022-12-13T09:46:24.601Z,-0.70
2022-12-13T09:49:01.562Z,-0.70
2022-12-13T09:51:43.020Z,-0.70
2022-12-13T09:54:15.595Z,-0.70
2022-12-13T09:56:43.653Z,-0.60
2022-12-13T09:59:14.366Z,-0.50
2022-12-13T10:01:42.537Z,-0.40
2022-12-13T10:04:11.907Z,-0.20
2022-12-13T10:06:41.254Z,-0.10
2022-12-13T10:09:11.209Z,0.00
2022-12-13T10:11:50.373Z,-0.20
2022-12-13T10:14:22.973Z,-0.20
2022-12-13T10:16:52.946Z,0.00
2022-12-13T10:19:28.176Z,0.10
2022-12-13T10:22:01.349Z,0.20
2022-12-13T10:24:36.800Z,0.10
2022-12-13T10:27:12.610Z,0.20
2022-12-13T10:30:00.723Z,0.20
2022-12-13T10:32:28.791Z,0.10
2022-12-13T10:34:59.152Z,0.00
2022-12-13T10:37:31.450Z,0.10
2022-12-13T10:39:59.571Z,0.10
2022-12-13T10:42:33.657Z,0.30
2022-12-13T10:45:23.660Z,0.30
2022-12-13T10:47:52.064Z,0.20
2022-12-13T10:50:25.451Z,0.30
2022-12-13T10:52:53.484Z,0.30
2022-12-13T10:55:27.721Z,0.30
2022-12-13T10:57:57.945Z,0.40
2022-12-13T11:00:49.378Z,0.30
2022-12-13T11:03:31.072Z,0.00
2022-12-13T11:06:04.583Z,0.10
2022-12-13T11:08:32.617Z,0.10
2022-12-13T11:11:01.505Z,0.20
2022-12-13T11:13:34.640Z,0.30
2022-12-13T11:16:04.116Z,0.30
2022-12-13T11:18:35.487Z,0.20
2022-12-13T11:21:04.227Z,0.30
2022-12-13T11:23:34.378Z,0.40
2022-12-13T11:26:06.362Z,0.20
2022-12-13T11:28:52.849Z,0.10
2022-12-13T11:31:24.469Z,0.30
2022-12-13T11:33:55.900Z,0.50
2022-12-13T11:36:29.219Z,0.60
2022-12-13T11:39:08.089Z,0.60
2022-12-13T11:41:37.265Z,0.70
2022-12-13T11:44:08.472Z,0.70
2022-12-13T11:46:41.659Z,0.70
2022-12-13T11:49:12.550Z,0.80
2022-12-13T11:51:44.203Z,0.80
2022-12-13T11:54:14.740Z,0.90
2022-12-13T11:57:00.080Z,0.60
2022-12-13T11:59:39.860Z,0.50
2022-12-13T12:02:16.850Z,0.30
2022-12-13T12:04:47.158Z,0.40
2022-12-13T12:07:32.408Z,0.50
2022-12-13T12:10:06.575Z,0.70
2022-12-13T12:12:35.840Z,0.80
2022-12-13T12:15:16.217Z,0.60
2022-12-13T12:17:46.207Z,0.60
2022-12-13T12:20:24.095Z,0.70
2022-12-13T12:22:56.238Z,0.80
2022-12-13T12:25:27.178Z,0.60
2022-12-13T12:28:01.210Z,0.70
2022-12-13T12:30:35.555Z,0.80
2022-12-13T12:33:07.891Z,0.90
2022-12-13T12:36:01.534Z,0.90
2022-12-13T12:38:50.278Z,0.90
2022-12-13T12:41:34.176Z,0.80
2022-12-13T12:44:06.424Z,0.90
2022-12-13T12:47:08.697Z,0.90
2022-12-13T12:49:52.521Z,0.70
2022-12-13T12:52:23.363Z,0.80
2022-12-13T12:55:02.954Z,0.80
2022-12-13T12:57:39.525Z,0.70
2022-12-13T13:00:11.912Z,0.80
2022-12-13T13:02:41.172Z,0.90
2022-12-13T13:05:14.917Z,0.90
2022-12-13T13:07:51.528Z,0.90
2022-12-13T13:10:25.808Z,0.90
2022-12-13T13:13:01.848Z,0.70
2022-12-13T13:16:05.961Z,0.70
2022-12-13T13:18:55.515Z,0.70
2022-12-13T13:21:48.918Z,0.80
2022-12-13T13:24:26.344Z,0.70
2022-12-13T13:26:55.814Z,0.80
2022-12-13T13:29:35.618Z,0.70
2022-12-13T13:32:06.210Z,0.80
2022-12-13T13:34:36.935Z,0.80
2022-12-13T13:37:06.827Z,0.80
2022-12-13T13:39:56.641Z,0.90
2022-12-13T13:42:24.990Z,0.90
2022-12-13T13:45:04.287Z,0.90
2022-12-13T13:47:40.218Z,0.80
2022-12-13T13:50:38.419Z,0.80
2022-12-13T13:53:28.869Z,0.80
2022-12-13T13:56:02.054Z,0.80
2022-12-13T13:59:09.145Z,0.70
2022-12-13T14:02:08.352Z,0.60
2022-12-13T14:05:12.263Z,0.60
2022-12-13T14:07:57.590Z,0.60
2022-12-13T14:10:36.570Z,0.60
2022-12-13T14:13:44.716Z,0.60
2022-12-13T14:16:42.212Z,0.50
2022-12-13T14:19:26.736Z,0.50
2022-12-13T14:22:18.651Z,0.40
2022-12-13T14:24:52.794Z,0.30
2022-12-13T14:27:29.636Z,0.30
2022-12-13T14:29:58.421Z,0.40
2022-12-13T14:32:27.873Z,0.30
2022-12-13T14:34:56.331Z,0.20
2022-12-13T14:37:28.350Z,0.20
2022-12-13T14:39:56.846Z,0.20
2022-12-13T14:42:28.898Z,0.20
2022-12-13T14:44:57.023Z,0.10
2022-12-13T14:47:25.081Z,0.10
2022-12-13T14:49:55.481Z,0.10
2022-12-13T14:52:26.866Z,0.10
2022-12-13T14:54:58.622Z,0.00
2022-12-13T14:57:29.418Z,0.00
2022-12-13T14:59:58.232Z,0.00
2022-12-13T15:02:30.694Z,0.00
2022-12-13T15:05:01.408Z,0.00
2022-12-13T15:07:31.496Z,0.00
2022-12-13T15:10:01.095Z,0.00
2022-12-13T15:12:32.235Z,0.00
2022-12-13T15:15:01.919Z,-0.10
2022-12-13T15:17:32.354Z,-0.10
2022-12-13T15:20:23.512Z,-0.10
2022-12-13T15:22:58.264Z,-0.20
2022-12-13T15:25:29.953Z,-0.20
2022-12-13T15:27:59.377Z,-0.20
2022-12-13T15:30:35.192Z,-0.20
2022-12-13T15:33:03.677Z,-0.30
2022-12-13T15:35:31.884Z,-0.20
2022-12-13T15:38:02.378Z,-0.30
2022-12-13T15:40:31.143Z,-0.20
2022-12-13T15:43:00.896Z,-0.30
2022-12-13T15:45:36.420Z,-0.20
2022-12-13T15:48:05.758Z,-0.30
2022-12-13T15:50:35.439Z,-0.30
2022-12-13T15:53:04.499Z,-0.40
2022-12-13T15:55:35.318Z,-0.30
2022-12-13T15:58:04.864Z,-0.30
2022-12-13T16:00:34.395Z,-0.30
2022-12-13T16:03:08.962Z,-0.40
2022-12-13T16:05:39.366Z,-0.40
2022-12-13T16:08:13.867Z,-0.30
2022-12-13T16:10:47.577Z,-0.40
2022-12-13T16:13:26.087Z,-0.40
2022-12-13T16:16:00.308Z,-0.40
2022-12-13T16:18:44.719Z,-0.40
2022-12-13T16:21:12.788Z,-0.40
2022-12-13T16:23:40.867Z,-0.40
2022-12-13T16:26:21.690Z,-0.40
2022-12-13T16:28:51.178Z,-0.40
2022-12-13T16:31:21.320Z,-0.50
2022-12-13T16:33:49.491Z,-0.50
2022-12-13T16:36:17.522Z,-0.50
2022-12-13T16:38:45.856Z,-0.50
2022-12-13T16:41:14.761Z,-0.60
2022-12-13T16:43:48.724Z,-0.60
2022-12-13T16:47:17.086Z,-0.80
2022-12-13T16:49:10.049Z,-0.80
2022-12-13T16:51:39.011Z,-1.00
2022-12-13T16:54:09.452Z,-1.10
2022-12-13T16:56:37.518Z,-1.20
2022-12-13T16:59:05.564Z,-1.30
2022-12-13T17:01:35.133Z,-1.30
2022-12-13T17:04:08.703Z,-1.40
2022-12-13T17:06:40.090Z,-1.50
2022-12-13T17:09:08.238Z,-1.60
2022-12-13T17:11:36.589Z,-1.70
2022-12-13T17:14:05.810Z,-1.70
2022-12-13T17:16:35.257Z,-1.80
2022-12-13T17:19:03.384Z,-1.90
2022-12-13T17:21:31.421Z,-1.90
2022-12-13T17:24:01.006Z,-1.90
2022-12-13T17:26:29.195Z,-2.00
2022-12-13T17:28:57.313Z,-2.00
2022-12-13T17:31:28.114Z,-2.20
2022-12-13T17:34:02.847Z,-2.20
2022-12-13T17:36:31.544Z,-2.40
2022-12-13T17:38:59.809Z,-2.40
2022-12-13T17:41:27.846Z,-2.50
2022-12-13T17:43:59.610Z,-2.50
2022-12-13T17:46:27.705Z,-2.60
2022-12-13T17:48:56.121Z,-2.60
2022-12-13T17:51:25.503Z,-2.70
2022-12-13T17:53:53.619Z,-2.80
2022-12-13T17:56:22.117Z,-2.90
2022-12-13T17:58:50.184Z,-2.90
2022-12-13T18:01:19.626Z,-3.00
2022-12-13T18:03:48.925Z,-3.10
2022-12-13T18:06:17.084Z,-3.20
2022-12-13T18:08:46.829Z,-3.20
2022-12-13T18:14:03.422Z,-3.30
2022-12-13T18:16:36.984Z,-3.40
2022-12-13T18:19:07.101Z,-3.40
2022-12-13T18:21:35.534Z,-3.40
2022-12-13T18:24:05.561Z,-3.50
2022-12-13T18:26:33.620Z,-3.50
2022-12-13T18:29:01.735Z,-3.60
2022-12-13T18:31:29.821Z,-3.60
2022-12-13T18:33:57.917Z,-3.60
2022-12-13T18:36:26.201Z,-3.60
2022-12-13T18:38:54.442Z,-3.70
2022-12-13T18:41:24.631Z,-3.70
2022-12-13T18:43:55.788Z,-3.80
2022-12-13T18:46:23.856Z,-3.90
2022-12-13T18:48:51.962Z,-3.90
2022-12-13T18:51:19.966Z,-3.90
2022-12-13T18:53:48.018Z,-3.90
2022-12-13T18:56:19.206Z,-3.90
2022-12-13T18:58:49.659Z,-4.00
2022-12-13T19:01:18.231Z,-4.00
2022-12-13T19:03:47.512Z,-4.10
2022-12-13T19:06:16.594Z,-4.10
2022-12-13T19:08:44.678Z,-4.10
2022-12-13T19:11:12.687Z,-4.20
2022-12-13T19:13:41.190Z,-4.20
2022-12-13T19:16:11.967Z,-4.20
2022-12-13T19:18:40.041Z,-4.30
2022-12-13T19:21:10.071Z,-4.30
2022-12-13T19:23:40.811Z,-4.40
2022-12-13T19:26:09.517Z,-4.40
2022-12-13T19:28:38.106Z,-4.50
2022-12-13T19:31:06.614Z,-4.50
2022-12-13T19:33:36.155Z,-4.50
2022-12-13T19:36:04.684Z,-4.50
2022-12-13T19:38:32.734Z,-4.60
2022-12-13T19:41:00.756Z,-4.70
2022-12-13T19:43:29.392Z,-4.70
2022-12-13T19:45:57.701Z,-4.70
2022-12-13T19:48:25.742Z,-4.70
2022-12-13T19:50:59.489Z,-4.70
2022-12-13T19:53:28.587Z,-4.80
2022-12-13T19:55:56.806Z,-4.80
2022-12-13T19:58:24.929Z,-4.90
2022-12-13T20:00:53.020Z,-4.90
2022-12-13T20:03:21.345Z,-4.90
2022-12-13T20:05:58.916Z,-4.90
2022-12-13T20:08:27.156Z,-4.90
2022-12-13T20:10:58.282Z,-5.00
2022-12-13T20:13:26.674Z,-5.00
2022-12-13T20:15:54.967Z,-5.10
2022-12-13T20:18:23.070Z,-5.10
2022-12-13T20:21:11.265Z,-5.10
2022-12-13T20:23:40.979Z,-5.20
2022-12-13T20:26:09.982Z,-5.10
2022-12-13T20:28:38.042Z,-5.20
2022-12-13T20:31:08.510Z,-5.30
2022-12-13T20:33:36.943Z,-5.30
2022-12-13T20:38:56.116Z,-5.40
2022-12-13T20:41:24.645Z,-5.40
2022-12-13T20:43:52.996Z,-5.60
2022-12-13T20:46:21.415Z,-5.50
2022-12-13T20:48:49.948Z,-5.60
2022-12-13T20:51:19.510Z,-5.60
2022-12-13T20:53:48.118Z,-5.50
2022-12-13T20:56:18.554Z,-5.60
2022-12-13T20:58:46.820Z,-5.60
2022-12-13T21:01:16.025Z,-5.70
2022-12-13T21:03:44.177Z,-5.70
2022-12-13T21:06:12.199Z,-5.70
2022-12-13T21:08:52.104Z,-5.70
2022-12-13T21:11:27.641Z,-5.70
2022-12-13T21:14:05.284Z,-5.70
2022-12-13T21:16:37.941Z,-5.80
2022-12-13T21:19:06.152Z,-5.80
2022-12-13T21:21:34.709Z,-5.90
2022-12-13T21:24:03.585Z,-5.90
2022-12-13T21:26:35.758Z,-5.90
2022-12-13T21:29:07.312Z,-5.90
2022-12-13T21:31:35.678Z,-6.00
2022-12-13T21:34:03.768Z,-6.00
2022-12-13T21:36:32.264Z,-6.00
2022-12-13T21:39:01.376Z,-6.00
2022-12-13T21:41:29.558Z,-5.90
2022-12-13T21:44:00.485Z,-6.00
2022-12-13T21:46:54.743Z,-5.90
2022-12-13T21:49:17.495Z,-5.90
2022-12-13T21:51:48.199Z,-5.90
2022-12-13T21:54:17.352Z,-5.90
2022-12-13T21:57:02.833Z,-5.90
2022-12-13T21:59:32.238Z,-5.90
2022-12-13T22:02:13.302Z,-5.90
2022-12-13T22:04:43.517Z,-6.00
2022-12-13T22:07:12.422Z,-5.90
2022-12-13T22:09:40.489Z,-5.90
2022-12-13T22:12:09.417Z,-5.90
2022-12-13T22:14:38.822Z,-5.90
2022-12-13T22:17:06.845Z,-5.90
2022-12-13T22:19:34.886Z,-5.90
2022-12-13T22:22:02.900Z,-5.90
2022-12-13T22:24:31.062Z,-5.90
2022-12-13T22:26:59.084Z,-6.00
2022-12-13T22:29:27.296Z,-6.00
2022-12-13T22:31:56.731Z,-6.00
2022-12-13T22:34:24.806Z,-6.00
2022-12-13T22:36:53.316Z,-6.00
2022-12-13T22:39:22.167Z,-6.00
2022-12-13T22:41:50.438Z,-6.00
2022-12-13T22:44:20.452Z,-6.00
2022-12-13T22:46:48.703Z,-5.90
2022-12-13T22:49:18.269Z,-5.90
2022-12-13T22:51:46.640Z,-6.00
2022-12-13T22:54:14.723Z,-6.00
2022-12-13T22:56:42.751Z,-6.00
2022-12-13T22:59:10.783Z,-6.00
2022-12-13T23:01:39.752Z,-6.00
2022-12-13T23:04:08.131Z,-6.10
2022-12-13T23:06:38.177Z,-6.10
2022-12-13T23:09:07.768Z,-6.10
2022-12-13T23:11:53.296Z,-6.20
2022-12-13T23:14:22.069Z,-6.10
2022-12-13T23:16:51.061Z,-6.20
2022-12-13T23:22:08.772Z,-6.20
2022-12-13T23:24:36.868Z,-6.20
2022-12-13T23:27:04.974Z,-6.20
2022-12-13T23:29:33.012Z,-6.30
2022-12-13T23:32:01.112Z,-6.30
2022-12-13T23:34:29.154Z,-6.30
2022-12-13T23:36:57.174Z,-6.30
2022-12-13T23:39:26.702Z,-6.30
2022-12-13T23:41:54.736Z,-6.30
2022-12-13T23:44:22.885Z,-6.40
2022-12-13T23:46:50.909Z,-6.40
2022-12-13T23:49:20.699Z,-6.40
2022-12-13T23:51:48.784Z,-6.40
2022-12-13T23:54:19.487Z,-6.40
2022-12-13T23:56:48.954Z,-6.40
2022-12-13T23:59:17.432Z,-6.40
